Trade Lake, Wisconsin
Current Conditions -  °F | °C
As of 5:15 AM on Sunday 21 Dec 2014 (Local Time) from KRZN Reporting Station
Overcast Overcast  
Wind Chill: -4°   Ceiling: 1200
Heat Index:   Visibility: 10mi
Dew Point: -2°   Wind: 8mph
Humidity: 87%   Direction: 160°SSE
Pressure: 29.96"   Gusts: NA
Location:  45.6678°N, 92.363°W
Report Text: KRZN 211115Z AUTO 16007KT 10SM OVC012 00/M02 A2996 RMK AO2 T10011021
Loading
Personal Weather Stations






























Interactive Weather Map New forecast layout! Learn more

10-Day Weather Forecast

Advertisements
Track Severe Weather on mobile